createdAt,value
2022-12-06T00:01:16.160Z,93.76
2022-12-06T00:03:45.951Z,93.69
2022-12-06T00:06:19.057Z,92.98
2022-12-06T00:08:49.031Z,92.12
2022-12-06T00:11:18.647Z,92.63
2022-12-06T00:13:47.608Z,92.40
2022-12-06T00:16:17.261Z,92.41
2022-12-06T00:18:47.137Z,93.54
2022-12-06T00:21:20.803Z,94.27
2022-12-06T00:23:51.590Z,94.50
2022-12-06T00:26:20.675Z,94.48
2022-12-06T00:28:49.135Z,94.47
2022-12-06T00:31:20.279Z,93.76
2022-12-06T00:33:48.439Z,92.80
2022-12-06T00:36:18.473Z,92.73
2022-12-06T00:38:46.931Z,92.44
2022-12-06T00:41:18.274Z,91.67
2022-12-06T00:43:47.026Z,92.17
2022-12-06T00:46:17.439Z,92.16
2022-12-06T00:48:45.611Z,92.31
2022-12-06T00:51:13.913Z,91.73
2022-12-06T00:53:42.150Z,91.63
2022-12-06T00:56:10.598Z,93.25
2022-12-06T00:58:40.257Z,94.14
2022-12-06T01:01:11.922Z,94.07
2022-12-06T01:03:39.877Z,93.99
2022-12-06T01:06:09.735Z,94.44
2022-12-06T01:08:38.014Z,94.79
2022-12-06T01:11:06.883Z,94.50
2022-12-06T01:13:36.815Z,93.61
2022-12-06T01:16:11.044Z,93.49
2022-12-06T01:18:39.783Z,92.20
2022-12-06T01:21:08.785Z,92.55
2022-12-06T01:23:36.934Z,91.73
2022-12-06T01:26:17.480Z,93.66
2022-12-06T01:28:45.487Z,93.19
2022-12-06T01:31:15.530Z,92.76
2022-12-06T01:33:44.193Z,92.45
2022-12-06T01:36:17.674Z,92.95
2022-12-06T01:38:45.914Z,93.00
2022-12-06T01:41:13.661Z,92.42
2022-12-06T01:43:43.827Z,92.81
2022-12-06T01:46:22.416Z,92.49
2022-12-06T01:48:55.477Z,92.33
2022-12-06T01:51:24.085Z,92.00
2022-12-06T01:53:53.763Z,92.81
2022-12-06T01:56:22.506Z,94.73
2022-12-06T01:58:55.496Z,94.58
2022-12-06T02:01:29.284Z,93.78
2022-12-06T02:03:59.775Z,93.76
2022-12-06T02:06:28.731Z,94.07
2022-12-06T02:08:58.141Z,93.97
2022-12-06T02:11:30.679Z,94.74
2022-12-06T02:14:02.337Z,94.77
2022-12-06T02:17:03.839Z,94.78
2022-12-06T02:19:53.241Z,93.77
2022-12-06T02:22:28.705Z,92.50
2022-12-06T02:25:06.862Z,92.94
2022-12-06T02:28:19.393Z,92.45
2022-12-06T02:30:56.704Z,93.29
2022-12-06T02:33:28.214Z,93.19
2022-12-06T02:36:01.877Z,92.57
2022-12-06T02:38:35.693Z,93.41
2022-12-06T02:41:09.396Z,95.98
2022-12-06T02:43:41.991Z,95.50
2022-12-06T02:46:14.021Z,95.84
2022-12-06T02:48:44.066Z,95.08
2022-12-06T02:51:15.390Z,94.86
2022-12-06T02:53:47.758Z,94.93
2022-12-06T02:56:17.667Z,94.87
2022-12-06T02:58:45.671Z,94.09
2022-12-06T03:01:17.902Z,93.90
2022-12-06T03:04:08.664Z,94.09
2022-12-06T03:07:07.163Z,94.28
2022-12-06T03:09:49.607Z,94.62
2022-12-06T03:12:29.960Z,96.75
2022-12-06T03:15:10.038Z,96.51
2022-12-06T03:17:43.579Z,96.15
2022-12-06T03:20:16.824Z,95.34
2022-12-06T03:22:50.202Z,94.68
2022-12-06T03:25:19.005Z,94.90
2022-12-06T03:27:49.318Z,95.03
2022-12-06T03:30:17.785Z,94.60
2022-12-06T03:32:49.859Z,94.52
2022-12-06T03:35:23.218Z,93.96
2022-12-06T03:37:56.786Z,93.82
2022-12-06T03:40:29.259Z,94.23
2022-12-06T03:42:58.465Z,93.91
2022-12-06T03:45:34.819Z,94.91
2022-12-06T03:48:09.474Z,94.95
2022-12-06T03:50:41.294Z,95.05
2022-12-06T03:53:09.443Z,94.79
2022-12-06T03:55:37.225Z,94.53
2022-12-06T03:58:05.309Z,94.49
2022-12-06T04:00:33.101Z,93.67
2022-12-06T04:03:00.986Z,93.55
2022-12-06T04:05:30.371Z,93.77
2022-12-06T04:07:58.235Z,93.57
2022-12-06T04:10:29.051Z,93.20
2022-12-06T04:13:02.730Z,92.27
2022-12-06T04:15:33.198Z,91.14
2022-12-06T04:18:13.964Z,93.20
2022-12-06T04:21:02.881Z,93.30
2022-12-06T04:23:33.215Z,92.47
2022-12-06T04:26:01.260Z,92.71
2022-12-06T04:28:46.419Z,94.08
2022-12-06T04:31:31.668Z,95.46
2022-12-06T04:34:17.061Z,94.94
2022-12-06T04:37:04.518Z,94.51
2022-12-06T04:39:32.824Z,94.72
2022-12-06T04:42:18.021Z,94.26
2022-12-06T04:44:45.919Z,93.86
2022-12-06T04:47:16.979Z,94.44
2022-12-06T04:49:44.841Z,94.51
2022-12-06T04:52:14.630Z,94.56
2022-12-06T04:54:43.069Z,94.31
2022-12-06T04:57:14.410Z,94.81
2022-12-06T04:59:43.980Z,94.72
2022-12-06T05:02:14.887Z,94.91
2022-12-06T05:04:43.169Z,95.21
2022-12-06T05:07:11.654Z,94.43
2022-12-06T05:09:43.058Z,94.89
2022-12-06T05:12:11.029Z,94.73
2022-12-06T05:14:38.795Z,94.34
2022-12-06T05:17:06.606Z,93.64
2022-12-06T05:19:34.471Z,94.16
2022-12-06T05:22:02.301Z,94.13
2022-12-06T05:24:30.169Z,94.29
2022-12-06T05:26:59.333Z,94.82
2022-12-06T05:29:27.115Z,96.10
2022-12-06T05:31:54.932Z,96.77
2022-12-06T05:34:22.925Z,96.55
2022-12-06T05:36:50.836Z,96.29
2022-12-06T05:39:18.626Z,96.36
2022-12-06T05:41:46.324Z,95.60
2022-12-06T05:44:15.419Z,95.65
2022-12-06T05:46:43.238Z,95.11
2022-12-06T05:49:11.130Z,95.33
2022-12-06T05:51:39.414Z,94.95
2022-12-06T05:54:07.304Z,94.46
2022-12-06T05:56:35.265Z,95.22
2022-12-06T05:59:05.139Z,94.66
2022-12-06T06:01:34.408Z,94.63
2022-12-06T06:04:02.480Z,95.96
2022-12-06T06:06:30.366Z,96.24
2022-12-06T06:08:58.274Z,96.87
2022-12-06T06:11:26.285Z,96.73
2022-12-06T06:13:54.824Z,95.52
2022-12-06T06:16:25.111Z,95.12
2022-12-06T06:18:54.366Z,96.80
2022-12-06T06:21:22.506Z,96.48
2022-12-06T06:23:50.273Z,95.63
2022-12-06T06:26:18.139Z,96.41
2022-12-06T06:28:45.934Z,96.26
2022-12-06T06:31:13.726Z,96.43
2022-12-06T06:33:41.562Z,95.83
2022-12-06T06:36:11.521Z,96.01
2022-12-06T06:38:39.600Z,95.49
2022-12-06T06:41:07.930Z,94.38
2022-12-06T06:43:35.876Z,94.33
2022-12-06T06:46:06.847Z,93.17
2022-12-06T06:48:37.206Z,94.84
2022-12-06T06:51:05.871Z,94.24
2022-12-06T06:53:35.270Z,94.02
2022-12-06T06:56:03.687Z,94.09
2022-12-06T06:58:31.581Z,94.84
2022-12-06T07:01:01.144Z,95.63
2022-12-06T07:03:30.031Z,96.25
2022-12-06T07:05:59.724Z,96.04
2022-12-06T07:08:28.973Z,95.58
2022-12-06T07:10:58.431Z,94.68
2022-12-06T07:13:28.264Z,94.66
2022-12-06T07:15:56.557Z,94.35
2022-12-06T07:18:24.380Z,94.14
2022-12-06T07:21:00.378Z,93.98
2022-12-06T07:23:28.450Z,92.65
2022-12-06T07:26:06.130Z,93.31
2022-12-06T07:28:36.333Z,93.24
2022-12-06T07:31:09.424Z,93.16
2022-12-06T07:33:37.309Z,93.49
2022-12-06T07:36:14.287Z,93.19
2022-12-06T07:38:43.682Z,93.40
2022-12-06T07:41:40.670Z,93.33
2022-12-06T07:44:36.477Z,92.86
2022-12-06T07:47:04.590Z,92.55
2022-12-06T07:49:32.757Z,93.33
2022-12-06T07:52:00.631Z,93.17
2022-12-06T07:54:28.526Z,93.74
2022-12-06T07:56:57.626Z,95.11
2022-12-06T07:59:26.408Z,96.68
2022-12-06T08:01:54.454Z,98.34
2022-12-06T08:04:22.828Z,98.37
2022-12-06T08:06:50.696Z,97.51
2022-12-06T08:09:18.520Z,96.62
2022-12-06T08:11:46.504Z,96.25
2022-12-06T08:14:15.822Z,96.40
2022-12-06T08:16:43.613Z,95.89
2022-12-06T08:19:11.458Z,95.10
2022-12-06T08:21:39.310Z,95.10
2022-12-06T08:24:10.561Z,95.46
2022-12-06T08:26:38.331Z,95.39
2022-12-06T08:29:06.187Z,95.09
2022-12-06T08:31:35.906Z,95.11
2022-12-06T08:34:04.921Z,94.79
2022-12-06T08:36:32.888Z,93.50
2022-12-06T08:39:02.043Z,92.59
2022-12-06T08:41:47.390Z,92.63
2022-12-06T08:44:16.732Z,91.58
2022-12-06T08:46:47.142Z,90.48
2022-12-06T08:49:16.081Z,89.58
2022-12-06T08:51:44.228Z,88.53
2022-12-06T08:54:16.859Z,88.95
2022-12-06T08:56:44.760Z,89.12
2022-12-06T08:59:12.872Z,89.05
2022-12-06T09:01:40.941Z,88.10
2022-12-06T09:04:14.210Z,88.90
2022-12-06T09:06:43.879Z,89.61
2022-12-06T09:09:13.838Z,89.27
2022-12-06T09:11:42.502Z,89.85
2022-12-06T09:14:17.882Z,89.61
2022-12-06T09:16:49.537Z,89.72
2022-12-06T09:19:19.818Z,89.13
2022-12-06T09:21:47.681Z,89.23
2022-12-06T09:24:17.917Z,89.28
2022-12-06T09:26:45.812Z,89.71
2022-12-06T09:29:14.203Z,89.14
2022-12-06T09:31:42.484Z,88.32
2022-12-06T09:34:11.896Z,88.15
2022-12-06T09:36:45.113Z,88.91
2022-12-06T09:39:16.138Z,87.81
2022-12-06T09:42:10.658Z,88.32
2022-12-06T09:45:02.929Z,88.31
2022-12-06T09:47:48.049Z,88.53
2022-12-06T09:50:26.890Z,88.37
2022-12-06T09:53:15.934Z,88.89
2022-12-06T09:56:00.246Z,87.97
2022-12-06T09:58:45.444Z,87.71
2022-12-06T10:01:25.744Z,87.99
2022-12-06T10:04:07.308Z,89.45
2022-12-06T10:06:41.517Z,89.19
2022-12-06T10:09:25.915Z,88.90
2022-12-06T10:12:10.815Z,87.81
2022-12-06T10:14:55.660Z,88.45
2022-12-06T10:17:34.799Z,88.10
2022-12-06T10:20:15.554Z,88.38
2022-12-06T10:22:59.660Z,89.29
2022-12-06T10:25:39.417Z,89.11
2022-12-06T10:28:13.625Z,89.79
2022-12-06T10:30:48.496Z,89.97
2022-12-06T10:33:31.355Z,89.48
2022-12-06T10:36:02.205Z,89.35
2022-12-06T10:38:38.394Z,88.79
2022-12-06T10:41:15.540Z,88.26
2022-12-06T10:43:51.312Z,87.62
2022-12-06T10:46:45.218Z,88.39
2022-12-06T10:49:23.338Z,88.88
2022-12-06T10:51:58.422Z,89.24
2022-12-06T10:54:31.563Z,88.93
2022-12-06T10:57:06.331Z,89.81
2022-12-06T10:59:38.290Z,89.19
2022-12-06T11:02:21.458Z,90.94
2022-12-06T11:04:50.407Z,91.08
2022-12-06T11:07:24.821Z,90.74
2022-12-06T11:09:54.680Z,90.23
2022-12-06T11:12:31.480Z,89.90
2022-12-06T11:15:05.141Z,90.63
2022-12-06T11:17:37.714Z,90.73
2022-12-06T11:20:16.424Z,90.85
2022-12-06T11:22:53.419Z,90.57
2022-12-06T11:25:29.680Z,91.22
2022-12-06T11:28:06.444Z,90.31
2022-12-06T11:30:37.064Z,91.15
2022-12-06T11:33:06.064Z,90.91
2022-12-06T11:35:34.066Z,91.04
2022-12-06T11:38:05.133Z,91.36
2022-12-06T11:40:37.812Z,93.24
2022-12-06T11:43:16.681Z,94.21
2022-12-06T11:45:45.846Z,95.04
2022-12-06T11:48:16.962Z,95.20
2022-12-06T11:50:46.238Z,95.31
2022-12-06T11:53:20.366Z,95.94
2022-12-06T11:55:53.141Z,96.69
2022-12-06T11:58:27.918Z,96.99
2022-12-06T12:01:02.285Z,96.08
2022-12-06T12:03:32.524Z,95.20
2022-12-06T12:06:17.663Z,95.30
2022-12-06T12:09:01.296Z,94.26
2022-12-06T12:11:31.621Z,93.90
2022-12-06T12:14:03.697Z,94.37
2022-12-06T12:16:37.073Z,93.41
2022-12-06T12:19:18.269Z,96.04
2022-12-06T12:21:50.953Z,95.15
2022-12-06T12:27:41.051Z,93.08
2022-12-06T12:30:25.521Z,94.48
2022-12-06T12:33:11.213Z,94.65
2022-12-06T12:35:40.690Z,94.15
2022-12-06T12:38:19.808Z,93.30
2022-12-06T12:40:51.115Z,94.62
2022-12-06T12:43:21.921Z,93.68
2022-12-06T12:46:21.143Z,93.62
2022-12-06T12:48:51.105Z,94.40
2022-12-06T12:51:32.199Z,93.56
2022-12-06T12:54:01.953Z,93.93
2022-12-06T12:56:33.652Z,94.42
2022-12-06T12:59:05.312Z,94.43
2022-12-06T13:01:42.545Z,92.79
2022-12-06T13:04:18.578Z,92.15
2022-12-06T13:06:50.931Z,91.89
2022-12-06T13:09:26.149Z,92.02
2022-12-06T13:12:02.678Z,91.01
2022-12-06T13:14:32.455Z,90.99
2022-12-06T13:17:07.720Z,89.73
2022-12-06T13:19:40.467Z,89.48
2022-12-06T13:22:16.587Z,89.91
2022-12-06T13:24:53.096Z,89.41
2022-12-06T13:27:23.942Z,89.06
2022-12-06T13:29:56.713Z,89.35
2022-12-06T13:32:33.307Z,88.10
2022-12-06T13:35:06.681Z,88.03
2022-12-06T13:37:42.950Z,87.98
2022-12-06T13:40:39.793Z,87.72
2022-12-06T13:43:54.707Z,86.52
2022-12-06T13:46:31.100Z,87.12
2022-12-06T13:49:02.188Z,86.30
2022-12-06T13:51:44.879Z,86.10
2022-12-06T13:54:37.105Z,85.25
2022-12-06T13:57:25.885Z,85.76
2022-12-06T13:59:53.803Z,86.57
2022-12-06T14:02:51.065Z,85.95
2022-12-06T14:08:31.242Z,85.71
2022-12-06T14:11:21.405Z,84.72
2022-12-06T14:13:59.962Z,85.91
2022-12-06T14:16:33.586Z,85.44
2022-12-06T14:19:03.872Z,86.17
2022-12-06T14:21:38.635Z,85.74
2022-12-06T14:24:08.181Z,85.90
2022-12-06T14:26:36.507Z,85.42
2022-12-06T14:29:04.432Z,85.75
2022-12-06T14:31:40.139Z,85.54
2022-12-06T14:34:25.675Z,86.15
2022-12-06T14:36:54.134Z,85.91
2022-12-06T14:39:26.479Z,85.84
2022-12-06T14:42:14.294Z,86.20
2022-12-06T14:44:47.799Z,85.23
2022-12-06T14:47:17.541Z,85.57
2022-12-06T14:50:03.472Z,85.23
2022-12-06T14:52:32.353Z,84.91
2022-12-06T14:55:18.138Z,84.69
2022-12-06T14:57:48.391Z,85.54
2022-12-06T15:00:26.299Z,85.76
2022-12-06T15:03:17.788Z,85.71
2022-12-06T15:05:49.681Z,86.89
2022-12-06T15:08:33.885Z,86.13
2022-12-06T15:11:05.353Z,85.55
2022-12-06T15:13:32.782Z,86.67
2022-12-06T15:16:05.437Z,86.14
2022-12-06T15:18:36.160Z,85.75
2022-12-06T15:21:12.128Z,85.34
2022-12-06T15:23:41.018Z,85.24
2022-12-06T15:26:13.119Z,85.33
2022-12-06T15:28:41.416Z,84.95
2022-12-06T15:31:17.483Z,85.18
2022-12-06T15:33:45.872Z,85.14
2022-12-06T15:36:17.998Z,85.09
2022-12-06T15:38:46.204Z,84.24
2022-12-06T15:41:18.673Z,85.18
2022-12-06T15:43:47.208Z,84.89
2022-12-06T15:46:19.664Z,85.27
2022-12-06T15:48:50.809Z,85.32
2022-12-06T15:51:21.283Z,85.59
2022-12-06T15:53:51.979Z,85.05
2022-12-06T15:56:23.008Z,85.75
2022-12-06T15:58:51.906Z,86.60
2022-12-06T16:01:22.528Z,86.14
2022-12-06T16:03:52.076Z,85.72
2022-12-06T16:06:21.742Z,86.35
2022-12-06T16:08:50.233Z,85.73
2022-12-06T16:11:20.550Z,85.28
2022-12-06T16:13:50.664Z,85.69
2022-12-06T16:16:20.481Z,86.38
2022-12-06T16:18:48.919Z,85.97
2022-12-06T16:21:21.799Z,85.09
2022-12-06T16:24:14.234Z,85.26
2022-12-06T16:26:45.082Z,84.78
2022-12-06T16:29:17.114Z,85.17
2022-12-06T16:31:46.029Z,84.95
2022-12-06T16:34:14.840Z,85.08
2022-12-06T16:36:56.262Z,85.58
2022-12-06T16:39:24.307Z,85.33
2022-12-06T16:41:52.058Z,85.90
2022-12-06T16:44:21.457Z,86.28
2022-12-06T16:46:49.693Z,86.21
2022-12-06T16:49:45.290Z,85.46
2022-12-06T16:52:07.825Z,85.68
2022-12-06T16:54:35.892Z,86.21
2022-12-06T16:57:03.871Z,85.83
2022-12-06T16:59:33.026Z,85.95
2022-12-06T17:02:01.649Z,85.68
2022-12-06T17:04:31.458Z,85.44
2022-12-06T17:06:59.315Z,85.20
2022-12-06T17:09:29.693Z,85.66
2022-12-06T17:12:07.595Z,85.63
2022-12-06T17:14:37.940Z,85.28
2022-12-06T17:17:06.203Z,85.61
2022-12-06T17:19:34.542Z,85.50
2022-12-06T17:22:06.214Z,85.15
2022-12-06T17:24:34.453Z,85.63
2022-12-06T17:27:02.379Z,85.66
2022-12-06T17:29:30.319Z,85.96
2022-12-06T17:31:59.495Z,86.88
2022-12-06T17:34:27.518Z,86.69
2022-12-06T17:36:57.387Z,86.68
2022-12-06T17:39:26.056Z,86.22
2022-12-06T17:42:11.218Z,86.28
2022-12-06T17:44:39.787Z,86.07
2022-12-06T17:47:09.012Z,85.82
2022-12-06T17:49:38.403Z,85.20
2022-12-06T17:52:08.784Z,85.50
2022-12-06T17:54:36.729Z,85.28
2022-12-06T17:57:04.726Z,85.00
2022-12-06T17:59:33.985Z,85.59
2022-12-06T18:02:18.381Z,85.61
2022-12-06T18:04:48.486Z,85.60
2022-12-06T18:07:17.247Z,85.50
2022-12-06T18:09:47.426Z,85.63
2022-12-06T18:12:17.215Z,85.76
2022-12-06T18:14:45.310Z,85.75
2022-12-06T18:17:13.645Z,86.23
2022-12-06T18:19:46.735Z,86.79
2022-12-06T18:22:16.433Z,86.26
2022-12-06T18:24:44.640Z,85.96
2022-12-06T18:27:12.840Z,85.72
2022-12-06T18:29:43.184Z,86.13
2022-12-06T18:32:11.110Z,86.03
2022-12-06T18:34:41.218Z,86.35
2022-12-06T18:37:09.282Z,86.38
2022-12-06T18:39:40.748Z,86.10
2022-12-06T18:42:08.547Z,85.78
2022-12-06T18:44:36.438Z,86.05
2022-12-06T18:47:04.308Z,85.91
2022-12-06T18:49:32.321Z,85.12
2022-12-06T18:52:00.130Z,86.27
2022-12-06T18:54:30.306Z,86.36
2022-12-06T18:56:59.888Z,86.32
2022-12-06T18:59:28.716Z,86.30
2022-12-06T19:01:56.853Z,86.40
2022-12-06T19:04:24.829Z,86.22
2022-12-06T19:06:52.813Z,86.43
2022-12-06T19:09:22.386Z,86.11
2022-12-06T19:11:50.294Z,86.21
2022-12-06T19:14:19.441Z,86.54
2022-12-06T19:16:48.970Z,86.30
2022-12-06T19:19:21.074Z,86.16
2022-12-06T19:21:50.114Z,86.30
2022-12-06T19:24:21.580Z,86.31
2022-12-06T19:26:50.971Z,86.38
2022-12-06T19:29:20.598Z,86.61
2022-12-06T19:31:48.478Z,86.50
2022-12-06T19:34:18.839Z,86.34
2022-12-06T19:36:47.191Z,85.76
2022-12-06T19:39:17.874Z,85.71
2022-12-06T19:42:03.692Z,85.81
2022-12-06T19:44:33.252Z,85.47
2022-12-06T19:47:01.673Z,86.14
2022-12-06T19:49:29.600Z,86.25
2022-12-06T19:51:57.352Z,85.84
2022-12-06T19:54:26.905Z,87.04
2022-12-06T19:56:57.071Z,87.54
2022-12-06T19:59:27.447Z,87.62
2022-12-06T20:01:58.163Z,87.08
2022-12-06T20:04:28.407Z,86.09
2022-12-06T20:06:56.256Z,86.30
2022-12-06T20:09:26.926Z,86.63
2022-12-06T20:12:05.414Z,86.42
2022-12-06T20:14:41.040Z,86.56
2022-12-06T20:17:14.924Z,85.79
2022-12-06T20:19:46.011Z,86.16
2022-12-06T20:22:14.936Z,86.33
2022-12-06T20:24:43.188Z,86.35
2022-12-06T20:27:11.552Z,86.22
2022-12-06T20:29:41.547Z,87.14
2022-12-06T20:32:12.977Z,86.77
2022-12-06T20:34:40.876Z,86.73
2022-12-06T20:37:08.662Z,86.37
2022-12-06T20:39:36.723Z,86.53
2022-12-06T20:42:06.320Z,85.62
2022-12-06T20:44:34.732Z,85.81
2022-12-06T20:47:02.733Z,86.30
2022-12-06T20:49:32.073Z,86.42
2022-12-06T20:52:02.050Z,86.67
2022-12-06T20:54:30.064Z,86.69
2022-12-06T20:56:58.544Z,86.29
2022-12-06T20:59:29.738Z,86.25
2022-12-06T21:01:57.778Z,86.25
2022-12-06T21:04:26.123Z,86.48
2022-12-06T21:06:55.380Z,86.01
2022-12-06T21:09:23.591Z,85.78
2022-12-06T21:11:53.666Z,84.95
2022-12-06T21:14:22.093Z,85.26
2022-12-06T21:16:50.058Z,85.86
2022-12-06T21:19:19.657Z,85.88
2022-12-06T21:21:49.545Z,85.50
2022-12-06T21:24:21.045Z,84.87
2022-12-06T21:26:49.703Z,85.74
2022-12-06T21:29:18.885Z,85.88
2022-12-06T21:31:47.025Z,85.68
2022-12-06T21:34:15.910Z,86.60
2022-12-06T21:36:44.835Z,86.15
2022-12-06T21:39:14.133Z,86.97
2022-12-06T21:41:45.849Z,88.19
2022-12-06T21:44:13.637Z,88.85
2022-12-06T21:46:41.604Z,88.82
2022-12-06T21:49:10.613Z,89.23
2022-12-06T21:51:38.423Z,89.82
2022-12-06T21:54:06.274Z,89.79
2022-12-06T21:56:35.085Z,89.82
2022-12-06T21:59:04.310Z,89.99
2022-12-06T22:01:32.695Z,90.04
2022-12-06T22:04:03.062Z,90.40
2022-12-06T22:06:32.189Z,91.08
2022-12-06T22:09:01.633Z,90.50
2022-12-06T22:11:32.304Z,88.92
2022-12-06T22:14:01.412Z,89.33
2022-12-06T22:16:30.593Z,89.12
2022-12-06T22:18:59.063Z,89.21
2022-12-06T22:21:28.466Z,89.03
2022-12-06T22:23:57.905Z,89.03
2022-12-06T22:26:28.126Z,89.03
2022-12-06T22:28:56.588Z,89.09
2022-12-06T22:31:26.629Z,88.82
2022-12-06T22:33:57.576Z,89.00
2022-12-06T22:36:26.161Z,89.39
2022-12-06T22:38:55.279Z,89.56
2022-12-06T22:41:24.208Z,88.77
2022-12-06T22:43:53.478Z,89.98
2022-12-06T22:46:21.791Z,90.59
2022-12-06T22:48:50.081Z,89.91
2022-12-06T22:51:21.285Z,89.76
2022-12-06T22:53:52.816Z,90.03
2022-12-06T22:56:20.772Z,89.70
2022-12-06T22:58:48.977Z,89.42
2022-12-06T23:01:19.183Z,89.88
2022-12-06T23:03:48.600Z,90.03
2022-12-06T23:06:17.777Z,89.86
2022-12-06T23:08:47.513Z,90.14
2022-12-06T23:11:17.863Z,90.08
2022-12-06T23:13:45.857Z,89.79
2022-12-06T23:16:15.538Z,90.04
2022-12-06T23:18:43.871Z,89.90
2022-12-06T23:21:14.801Z,89.91
2022-12-06T23:23:49.296Z,89.66
2022-12-06T23:26:18.513Z,90.52
2022-12-06T23:28:47.266Z,90.78
2022-12-06T23:31:21.167Z,90.93
2022-12-06T23:33:52.917Z,90.34
2022-12-06T23:36:23.021Z,89.70
2022-12-06T23:38:52.630Z,89.57
2022-12-06T23:41:22.244Z,89.42
2022-12-06T23:43:50.438Z,89.08
2022-12-06T23:46:22.544Z,88.96
2022-12-06T23:48:50.958Z,89.95
2022-12-06T23:51:20.854Z,90.28
2022-12-06T23:53:52.857Z,89.39
2022-12-06T23:56:22.749Z,89.39
2022-12-06T23:58:53.377Z,89.71
